sensor_id;sensor_type;location;lat;lon;timestamp;P1;P2;P0
72509;PMS5003;60532;56.114;40.350;2023-05-10T00:01:43;7.00;7.00;2.00
72509;PMS5003;60532;56.114;40.350;2023-05-10T00:03:43;4.00;4.00;2.00
72509;PMS5003;60532;56.114;40.350;2023-05-10T00:05:44;4.75;4.75;2.50
72509;PMS5003;60532;56.114;40.350;2023-05-10T00:07:44;4.50;4.50;2.00
72509;PMS5003;60532;56.114;40.350;2023-05-10T00:09:45;5.00;4.75;3.00
72509;PMS5003;60532;56.114;40.350;2023-05-10T00:11:45;5.50;5.50;3.00
72509;PMS5003;60532;56.114;40.350;2023-05-10T00:13:46;9.00;8.00;4.00
72509;PMS5003;60532;56.114;40.350;2023-05-10T00:15:47;8.60;8.00;4.00
72509;PMS5003;60532;56.114;40.350;2023-05-10T00:17:47;10.00;8.25;4.00
72509;PMS5003;60532;56.114;40.350;2023-05-10T00:19:48;8.75;8.75;4.25
72509;PMS5003;60532;56.114;40.350;2023-05-10T00:21:49;12.25;10.50;5.00
72509;PMS5003;60532;56.114;40.350;2023-05-10T00:23:49;9.75;9.75;4.00
72509;PMS5003;60532;56.114;40.350;2023-05-10T00:25:49;9.25;9.25;4.25
72509;PMS5003;60532;56.114;40.350;2023-05-10T00:27:50;13.50;9.50;7.00
72509;PMS5003;60532;56.114;40.350;2023-05-10T00:29:51;10.50;10.50;8.00
72509;PMS5003;60532;56.114;40.350;2023-05-10T00:31:52;11.40;10.00;7.00
72509;PMS5003;60532;56.114;40.350;2023-05-10T00:33:52;17.25;9.75;5.00
72509;PMS5003;60532;56.114;40.350;2023-05-10T00:35:53;15.50;11.00;5.50
72509;PMS5003;60532;56.114;40.350;2023-05-10T00:37:53;14.00;10.25;4.75
72509;PMS5003;60532;56.114;40.350;2023-05-10T00:39:54;24.25;12.75;6.25
72509;PMS5003;60532;56.114;40.350;2023-05-10T00:41:55;19.00;18.00;8.00
72509;PMS5003;60532;56.114;40.350;2023-05-10T00:43:55;19.25;16.00;8.25
72509;PMS5003;60532;56.114;40.350;2023-05-10T00:45:56;16.00;14.50;7.50
72509;PMS5003;60532;56.114;40.350;2023-05-10T00:47:56;15.00;15.00;9.00
72509;PMS5003;60532;56.114;40.350;2023-05-10T00:49:57;16.75;14.50;7.00
72509;PMS5003;60532;56.114;40.350;2023-05-10T00:51:57;15.25;15.00;6.00
72509;PMS5003;60532;56.114;40.350;2023-05-10T00:53:58;18.50;18.50;10.25
72509;PMS5003;60532;56.114;40.350;2023-05-10T00:55:59;20.50;16.75;10.00
72509;PMS5003;60532;56.114;40.350;2023-05-10T00:57:59;17.25;14.25;5.75
72509;PMS5003;60532;56.114;40.350;2023-05-10T01:00:00;15.75;15.25;9.00
72509;PMS5003;60532;56.114;40.350;2023-05-10T01:02:01;13.60;12.40;7.80
72509;PMS5003;60532;56.114;40.350;2023-05-10T01:04:02;16.75;13.75;8.00
72509;PMS5003;60532;56.114;40.350;2023-05-10T01:06:03;21.60;17.80;9.20
72509;PMS5003;60532;56.114;40.350;2023-05-10T01:08:04;14.75;14.25;8.00
72509;PMS5003;60532;56.114;40.350;2023-05-10T01:10:05;13.25;13.25;7.50
72509;PMS5003;60532;56.114;40.350;2023-05-10T01:12:06;14.80;14.20;7.80
72509;PMS5003;60532;56.114;40.350;2023-05-10T01:14:07;14.80;13.20;8.20
72509;PMS5003;60532;56.114;40.350;2023-05-10T01:16:08;21.00;15.40;8.60
72509;PMS5003;60532;56.114;40.350;2023-05-10T01:18:08;12.00;12.00;8.25
72509;PMS5003;60532;56.114;40.350;2023-05-10T01:20:09;15.25;12.50;8.50
72509;PMS5003;60532;56.114;40.350;2023-05-10T01:26:29;21.00;19.40;9.00
72509;PMS5003;60532;56.114;40.350;2023-05-10T01:37:25;11.40;11.00;6.20
72509;PMS5003;60532;56.114;40.350;2023-05-10T01:39:32;16.60;16.60;10.60
72509;PMS5003;60532;56.114;40.350;2023-05-10T01:43:57;12.00;12.00;7.60
72509;PMS5003;60532;56.114;40.350;2023-05-10T01:46:02;11.80;11.80;7.60
72509;PMS5003;60532;56.114;40.350;2023-05-10T01:48:10;14.40;10.00;4.20
72509;PMS5003;60532;56.114;40.350;2023-05-10T01:50:22;12.00;12.00;7.20
72509;PMS5003;60532;56.114;40.350;2023-05-10T01:52:30;14.80;13.00;7.00
72509;PMS5003;60532;56.114;40.350;2023-05-10T01:54:31;9.60;8.80;3.80
72509;PMS5003;60532;56.114;40.350;2023-05-10T01:56:33;11.60;9.20;4.80
72509;PMS5003;60532;56.114;40.350;2023-05-10T01:58:35;10.80;8.80;4.60
72509;PMS5003;60532;56.114;40.350;2023-05-10T02:00:36;7.80;7.80;3.20
72509;PMS5003;60532;56.114;40.350;2023-05-10T02:02:46;12.40;8.00;3.60
72509;PMS5003;60532;56.114;40.350;2023-05-10T02:04:48;8.00;8.00;4.00
72509;PMS5003;60532;56.114;40.350;2023-05-10T02:06:49;5.00;5.00;3.00
72509;PMS5003;60532;56.114;40.350;2023-05-10T02:08:51;8.00;8.00;4.00
72509;PMS5003;60532;56.114;40.350;2023-05-10T02:10:53;4.80;4.80;2.40
72509;PMS5003;60532;56.114;40.350;2023-05-10T02:12:54;9.60;7.60;3.00
72509;PMS5003;60532;56.114;40.350;2023-05-10T02:14:59;9.00;5.40;2.60
72509;PMS5003;60532;56.114;40.350;2023-05-10T02:17:02;8.20;4.80;3.00
72509;PMS5003;60532;56.114;40.350;2023-05-10T02:19:04;4.00;4.00;3.00
72509;PMS5003;60532;56.114;40.350;2023-05-10T02:21:05;8.50;7.00;3.00
72509;PMS5003;60532;56.114;40.350;2023-05-10T02:23:06;4.20;4.20;2.00
72509;PMS5003;60532;56.114;40.350;2023-05-10T02:25:07;8.20;6.20;3.00
72509;PMS5003;60532;56.114;40.350;2023-05-10T02:27:09;4.40;4.40;3.00
72509;PMS5003;60532;56.114;40.350;2023-05-10T02:29:10;5.00;5.00;3.00
72509;PMS5003;60532;56.114;40.350;2023-05-10T02:31:12;8.60;4.60;2.00
72509;PMS5003;60532;56.114;40.350;2023-05-10T02:33:14;7.00;5.00;4.00
72509;PMS5003;60532;56.114;40.350;2023-05-10T02:35:14;5.00;5.00;3.00
72509;PMS5003;60532;56.114;40.350;2023-05-10T02:37:15;2.20;2.20;0.40
72509;PMS5003;60532;56.114;40.350;2023-05-10T02:39:16;4.80;4.00;2.20
72509;PMS5003;60532;56.114;40.350;2023-05-10T02:41:19;4.60;4.60;2.00
72509;PMS5003;60532;56.114;40.350;2023-05-10T02:43:21;5.00;5.00;3.00
72509;PMS5003;60532;56.114;40.350;2023-05-10T02:45:23;7.60;7.00;2.40
72509;PMS5003;60532;56.114;40.350;2023-05-10T02:47:26;7.80;7.80;4.00
72509;PMS5003;60532;56.114;40.350;2023-05-10T02:49:27;4.80;4.80;3.00
72509;PMS5003;60532;56.114;40.350;2023-05-10T02:51:28;10.50;8.00;4.00
72509;PMS5003;60532;56.114;40.350;2023-05-10T02:53:32;8.80;8.00;3.00
72509;PMS5003;60532;56.114;40.350;2023-05-10T02:55:35;6.20;4.20;2.00
72509;PMS5003;60532;56.114;40.350;2023-05-10T02:57:38;5.80;5.00;3.00
72509;PMS5003;60532;56.114;40.350;2023-05-10T02:59:41;5.80;5.80;3.00
72509;PMS5003;60532;56.114;40.350;2023-05-10T03:01:43;6.80;5.00;3.00
72509;PMS5003;60532;56.114;40.350;2023-05-10T03:03:43;7.00;7.00;3.00
72509;PMS5003;60532;56.114;40.350;2023-05-10T03:05:43;5.50;4.50;2.00
72509;PMS5003;60532;56.114;40.350;2023-05-10T03:07:44;9.50;7.75;4.00
72509;PMS5003;60532;56.114;40.350;2023-05-10T03:09:45;8.00;8.00;3.60
72509;PMS5003;60532;56.114;40.350;2023-05-10T03:11:57;5.00;5.00;4.00
72509;PMS5003;60532;56.114;40.350;2023-05-10T03:14:13;8.00;5.00;3.00
72509;PMS5003;60532;56.114;40.350;2023-05-10T03:16:20;7.80;6.00;3.20
72509;PMS5003;60532;56.114;40.350;2023-05-10T03:18:28;4.80;4.80;3.00
72509;PMS5003;60532;56.114;40.350;2023-05-10T03:20:31;7.80;6.20;3.20
72509;PMS5003;60532;56.114;40.350;2023-05-10T03:22:40;8.20;6.40;3.00
72509;PMS5003;60532;56.114;40.350;2023-05-10T03:24:44;5.00;4.00;2.20
72509;PMS5003;60532;56.114;40.350;2023-05-10T03:26:45;2.40;2.40;0.00
72509;PMS5003;60532;56.114;40.350;2023-05-10T03:28:46;8.00;6.00;3.00
72509;PMS5003;60532;56.114;40.350;2023-05-10T03:30:48;5.20;4.60;2.00
72509;PMS5003;60532;56.114;40.350;2023-05-10T03:32:49;4.00;3.40;2.00
72509;PMS5003;60532;56.114;40.350;2023-05-10T03:34:50;4.00;4.00;2.25
72509;PMS5003;60532;56.114;40.350;2023-05-10T03:36:51;5.00;3.25;1.00
72509;PMS5003;60532;56.114;40.350;2023-05-10T03:38:51;4.00;4.00;2.75
72509;PMS5003;60532;56.114;40.350;2023-05-10T03:40:52;3.25;3.25;1.25
72509;PMS5003;60532;56.114;40.350;2023-05-10T03:42:52;7.75;5.00;1.75
72509;PMS5003;60532;56.114;40.350;2023-05-10T03:44:53;5.00;5.00;3.00
72509;PMS5003;60532;56.114;40.350;2023-05-10T03:46:53;6.00;4.50;3.00
72509;PMS5003;60532;56.114;40.350;2023-05-10T03:48:54;7.00;7.00;3.00
72509;PMS5003;60532;56.114;40.350;2023-05-10T03:50:54;7.00;7.00;3.75
72509;PMS5003;60532;56.114;40.350;2023-05-10T03:52:55;4.25;4.25;3.00
72509;PMS5003;60532;56.114;40.350;2023-05-10T03:54:56;6.25;6.25;3.00
72509;PMS5003;60532;56.114;40.350;2023-05-10T03:56:56;8.25;7.50;4.00
72509;PMS5003;60532;56.114;40.350;2023-05-10T03:58:56;10.00;8.25;4.00
72509;PMS5003;60532;56.114;40.350;2023-05-10T04:00:57;7.00;5.00;3.25
72509;PMS5003;60532;56.114;40.350;2023-05-10T04:02:57;6.25;6.25;3.75
72509;PMS5003;60532;56.114;40.350;2023-05-10T04:04:58;10.00;6.50;4.00
72509;PMS5003;60532;56.114;40.350;2023-05-10T04:06:58;6.75;6.50;3.00
72509;PMS5003;60532;56.114;40.350;2023-05-10T04:08:59;7.75;6.00;3.00
72509;PMS5003;60532;56.114;40.350;2023-05-10T04:11:07;6.00;6.00;3.40
72509;PMS5003;60532;56.114;40.350;2023-05-10T04:13:08;7.40;7.40;3.00
72509;PMS5003;60532;56.114;40.350;2023-05-10T04:15:08;8.50;8.00;3.50
72509;PMS5003;60532;56.114;40.350;2023-05-10T04:17:09;6.00;6.00;3.00
72509;PMS5003;60532;56.114;40.350;2023-05-10T04:19:10;7.60;7.00;4.00
72509;PMS5003;60532;56.114;40.350;2023-05-10T04:21:14;8.75;8.75;4.00
72509;PMS5003;60532;56.114;40.350;2023-05-10T04:23:15;18.00;17.40;10.00
72509;PMS5003;60532;56.114;40.350;2023-05-10T04:25:16;12.20;11.80;5.00
72509;PMS5003;60532;56.114;40.350;2023-05-10T04:27:17;11.25;9.25;7.50
72509;PMS5003;60532;56.114;40.350;2023-05-10T04:29:17;15.50;9.50;5.25
72509;PMS5003;60532;56.114;40.350;2023-05-10T04:31:18;9.75;9.25;6.00
72509;PMS5003;60532;56.114;40.350;2023-05-10T04:33:18;11.00;10.00;7.00
72509;PMS5003;60532;56.114;40.350;2023-05-10T04:35:19;10.00;10.00;4.50
72509;PMS5003;60532;56.114;40.350;2023-05-10T04:37:19;16.75;13.75;6.00
72509;PMS5003;60532;56.114;40.350;2023-05-10T04:39:21;8.60;7.80;4.00
72509;PMS5003;60532;56.114;40.350;2023-05-10T04:41:22;11.75;11.75;5.00
72509;PMS5003;60532;56.114;40.350;2023-05-10T04:43:22;7.50;5.50;3.00
72509;PMS5003;60532;56.114;40.350;2023-05-10T04:45:23;9.50;9.25;5.00
72509;PMS5003;60532;56.114;40.350;2023-05-10T04:47:23;8.00;8.00;5.75
72509;PMS5003;60532;56.114;40.350;2023-05-10T04:49:23;10.00;10.00;4.00
72509;PMS5003;60532;56.114;40.350;2023-05-10T04:51:24;12.50;10.75;5.75
72509;PMS5003;60532;56.114;40.350;2023-05-10T04:53:25;11.00;7.25;4.00
72509;PMS5003;60532;56.114;40.350;2023-05-10T04:55:25;9.00;9.00;4.75
72509;PMS5003;60532;56.114;40.350;2023-05-10T04:57:27;12.40;11.80;6.00
72509;PMS5003;60532;56.114;40.350;2023-05-10T04:59:27;9.25;7.00;4.00
72509;PMS5003;60532;56.114;40.350;2023-05-10T05:01:28;8.75;8.25;5.00
72509;PMS5003;60532;56.114;40.350;2023-05-10T05:03:28;9.00;6.25;3.50
72509;PMS5003;60532;56.114;40.350;2023-05-10T05:05:29;10.00;9.75;4.50
72509;PMS5003;60532;56.114;40.350;2023-05-10T05:07:29;9.25;9.25;5.00
72509;PMS5003;60532;56.114;40.350;2023-05-10T05:09:30;13.20;9.00;5.20
72509;PMS5003;60532;56.114;40.350;2023-05-10T05:11:32;11.60;6.40;3.00
72509;PMS5003;60532;56.114;40.350;2023-05-10T05:13:32;8.75;8.00;4.75
72509;PMS5003;60532;56.114;40.350;2023-05-10T05:15:33;12.00;9.75;4.00
72509;PMS5003;60532;56.114;40.350;2023-05-10T05:17:33;12.00;12.00;6.00
72509;PMS5003;60532;56.114;40.350;2023-05-10T05:19:34;13.75;10.25;5.25
72509;PMS5003;60532;56.114;40.350;2023-05-10T05:21:34;10.75;10.75;5.75
72509;PMS5003;60532;56.114;40.350;2023-05-10T05:23:35;7.20;7.20;4.00
72509;PMS5003;60532;56.114;40.350;2023-05-10T05:25:36;9.75;9.75;3.50
72509;PMS5003;60532;56.114;40.350;2023-05-10T05:27:36;11.00;10.00;6.00
72509;PMS5003;60532;56.114;40.350;2023-05-10T05:29:37;11.25;10.25;5.00
72509;PMS5003;60532;56.114;40.350;2023-05-10T05:31:38;12.00;9.75;5.75
72509;PMS5003;60532;56.114;40.350;2023-05-10T05:33:38;8.00;8.00;5.00
72509;PMS5003;60532;56.114;40.350;2023-05-10T05:35:38;12.50;12.25;7.00
72509;PMS5003;60532;56.114;40.350;2023-05-10T05:37:39;10.50;7.50;5.00
72509;PMS5003;60532;56.114;40.350;2023-05-10T05:39:40;13.50;13.00;6.50
72509;PMS5003;60532;56.114;40.350;2023-05-10T05:41:40;10.25;10.00;4.00
72509;PMS5003;60532;56.114;40.350;2023-05-10T05:43:41;13.25;12.75;6.75
72509;PMS5003;60532;56.114;40.350;2023-05-10T05:45:41;11.75;11.75;6.25
72509;PMS5003;60532;56.114;40.350;2023-05-10T05:47:41;13.75;11.00;6.00
72509;PMS5003;60532;56.114;40.350;2023-05-10T05:49:43;14.25;11.25;6.25
72509;PMS5003;60532;56.114;40.350;2023-05-10T05:51:45;14.40;12.40;6.80
72509;PMS5003;60532;56.114;40.350;2023-05-10T05:53:46;11.75;7.00;3.00
72509;PMS5003;60532;56.114;40.350;2023-05-10T05:57:54;13.00;8.80;2.20
72509;PMS5003;60532;56.114;40.350;2023-05-10T05:59:54;15.50;12.50;5.75
72509;PMS5003;60532;56.114;40.350;2023-05-10T06:01:55;13.00;9.75;6.00
72509;PMS5003;60532;56.114;40.350;2023-05-10T06:03:55;9.75;7.50;5.25
72509;PMS5003;60532;56.114;40.350;2023-05-10T06:05:56;13.50;13.50;6.25
72509;PMS5003;60532;56.114;40.350;2023-05-10T06:07:56;9.50;9.50;6.00
72509;PMS5003;60532;56.114;40.350;2023-05-10T06:09:59;16.20;12.60;7.00
72509;PMS5003;60532;56.114;40.350;2023-05-10T06:12:00;18.00;14.75;7.00
72509;PMS5003;60532;56.114;40.350;2023-05-10T06:14:00;17.00;15.25;7.75
72509;PMS5003;60532;56.114;40.350;2023-05-10T06:16:04;14.00;12.80;5.60
72509;PMS5003;60532;56.114;40.350;2023-05-10T06:18:05;16.80;13.60;8.00
72509;PMS5003;60532;56.114;40.350;2023-05-10T06:20:06;11.50;11.00;6.25
72509;PMS5003;60532;56.114;40.350;2023-05-10T06:22:07;10.50;10.00;6.00
72509;PMS5003;60532;56.114;40.350;2023-05-10T06:24:07;8.25;7.50;4.50
72509;PMS5003;60532;56.114;40.350;2023-05-10T06:26:08;14.00;12.00;7.00
72509;PMS5003;60532;56.114;40.350;2023-05-10T06:28:09;14.60;13.60;7.00
72509;PMS5003;60532;56.114;40.350;2023-05-10T06:30:09;11.25;11.00;6.50
72509;PMS5003;60532;56.114;40.350;2023-05-10T06:32:10;8.80;8.80;6.00
72509;PMS5003;60532;56.114;40.350;2023-05-10T06:34:10;9.25;8.25;6.00
72509;PMS5003;60532;56.114;40.350;2023-05-10T06:36:11;5.40;4.60;2.00
72509;PMS5003;60532;56.114;40.350;2023-05-10T06:38:13;10.00;9.60;6.00
72509;PMS5003;60532;56.114;40.350;2023-05-10T06:40:13;10.25;7.25;5.00
72509;PMS5003;60532;56.114;40.350;2023-05-10T06:42:14;7.00;7.00;5.25
72509;PMS5003;60532;56.114;40.350;2023-05-10T06:44:15;9.50;9.00;5.25
72509;PMS5003;60532;56.114;40.350;2023-05-10T06:46:15;7.00;7.00;5.00
72509;PMS5003;60532;56.114;40.350;2023-05-10T06:48:16;7.75;7.00;4.00
72509;PMS5003;60532;56.114;40.350;2023-05-10T06:50:16;7.00;7.00;4.00
72509;PMS5003;60532;56.114;40.350;2023-05-10T06:52:17;5.75;5.00;3.00
72509;PMS5003;60532;56.114;40.350;2023-05-10T06:54:17;7.25;7.25;4.00
72509;PMS5003;60532;56.114;40.350;2023-05-10T06:56:18;11.00;11.00;6.00
72509;PMS5003;60532;56.114;40.350;2023-05-10T06:58:21;8.40;8.40;4.40
72509;PMS5003;60532;56.114;40.350;2023-05-10T07:00:21;9.00;8.75;5.00
72509;PMS5003;60532;56.114;40.350;2023-05-10T07:02:22;5.75;4.00;2.00
72509;PMS5003;60532;56.114;40.350;2023-05-10T07:04:23;6.00;6.00;3.80
72509;PMS5003;60532;56.114;40.350;2023-05-10T07:06:23;6.50;6.25;3.00
72509;PMS5003;60532;56.114;40.350;2023-05-10T07:08:24;5.00;5.00;3.50
72509;PMS5003;60532;56.114;40.350;2023-05-10T07:10:25;5.00;5.00;2.50
72509;PMS5003;60532;56.114;40.350;2023-05-10T07:12:25;4.50;4.50;3.00
72509;PMS5003;60532;56.114;40.350;2023-05-10T07:14:26;5.25;4.00;2.00
72509;PMS5003;60532;56.114;40.350;2023-05-10T07:16:26;5.25;5.25;3.00
72509;PMS5003;60532;56.114;40.350;2023-05-10T07:18:27;4.00;4.00;3.00
72509;PMS5003;60532;56.114;40.350;2023-05-10T07:20:27;4.50;3.75;2.50
72509;PMS5003;60532;56.114;40.350;2023-05-10T07:22:28;4.00;4.00;2.00
72509;PMS5003;60532;56.114;40.350;2023-05-10T07:24:28;6.00;4.50;2.25
72509;PMS5003;60532;56.114;40.350;2023-05-10T07:26:29;6.20;5.20;3.00
72509;PMS5003;60532;56.114;40.350;2023-05-10T07:28:30;3.75;3.75;2.00
72509;PMS5003;60532;56.114;40.350;2023-05-10T07:30:30;2.75;2.75;2.00
72509;PMS5003;60532;56.114;40.350;2023-05-10T07:32:31;4.00;4.00;2.00
72509;PMS5003;60532;56.114;40.350;2023-05-10T07:34:31;4.25;3.25;2.00
72509;PMS5003;60532;56.114;40.350;2023-05-10T07:36:32;3.75;3.75;2.00
72509;PMS5003;60532;56.114;40.350;2023-05-10T07:38:32;4.00;4.00;2.00
72509;PMS5003;60532;56.114;40.350;2023-05-10T07:40:33;3.25;3.00;2.00
72509;PMS5003;60532;56.114;40.350;2023-05-10T07:42:34;5.50;4.00;2.00
72509;PMS5003;60532;56.114;40.350;2023-05-10T07:44:34;3.00;3.00;2.00
72509;PMS5003;60532;56.114;40.350;2023-05-10T07:46:35;4.50;3.25;2.00
72509;PMS5003;60532;56.114;40.350;2023-05-10T07:48:36;5.25;5.25;2.00
72509;PMS5003;60532;56.114;40.350;2023-05-10T07:50:36;3.00;3.00;1.80
72509;PMS5003;60532;56.114;40.350;2023-05-10T07:52:37;5.25;5.25;2.00
72509;PMS5003;60532;56.114;40.350;2023-05-10T07:54:37;5.75;5.75;2.50
72509;PMS5003;60532;56.114;40.350;2023-05-10T07:56:38;5.00;5.00;2.00
72509;PMS5003;60532;56.114;40.350;2023-05-10T07:58:39;4.60;4.00;2.00
72509;PMS5003;60532;56.114;40.350;2023-05-10T08:00:40;4.25;4.00;2.00
72509;PMS5003;60532;56.114;40.350;2023-05-10T08:02:41;5.00;5.00;3.00
72509;PMS5003;60532;56.114;40.350;2023-05-10T08:04:42;5.25;4.75;2.00
72509;PMS5003;60532;56.114;40.350;2023-05-10T08:06:42;2.75;2.75;0.00
72509;PMS5003;60532;56.114;40.350;2023-05-10T08:08:42;6.00;5.00;2.50
72509;PMS5003;60532;56.114;40.350;2023-05-10T08:10:43;4.00;4.00;2.75
72509;PMS5003;60532;56.114;40.350;2023-05-10T08:12:44;3.00;3.00;1.75
72509;PMS5003;60532;56.114;40.350;2023-05-10T08:14:44;3.50;3.50;2.25
72509;PMS5003;60532;56.114;40.350;2023-05-10T08:16:45;4.00;4.00;2.00
72509;PMS5003;60532;56.114;40.350;2023-05-10T08:18:46;6.00;3.75;2.00
72509;PMS5003;60532;56.114;40.350;2023-05-10T08:20:46;6.00;4.40;2.00
72509;PMS5003;60532;56.114;40.350;2023-05-10T08:22:47;6.00;4.00;2.50
72509;PMS5003;60532;56.114;40.350;2023-05-10T08:24:48;3.25;2.75;2.00
72509;PMS5003;60532;56.114;40.350;2023-05-10T08:26:48;6.50;5.00;3.00
72509;PMS5003;60532;56.114;40.350;2023-05-10T08:28:49;4.00;4.00;2.25
72509;PMS5003;60532;56.114;40.350;2023-05-10T08:30:49;4.25;4.00;2.75
72509;PMS5003;60532;56.114;40.350;2023-05-10T08:32:50;2.80;2.80;2.00
72509;PMS5003;60532;56.114;40.350;2023-05-10T08:34:51;3.00;3.00;2.00
72509;PMS5003;60532;56.114;40.350;2023-05-10T08:36:51;4.75;4.75;2.25
72509;PMS5003;60532;56.114;40.350;2023-05-10T08:38:52;5.75;4.75;3.00
72509;PMS5003;60532;56.114;40.350;2023-05-10T08:40:56;6.00;4.00;3.00
72509;PMS5003;60532;56.114;40.350;2023-05-10T08:43:04;3.40;3.00;2.00
72509;PMS5003;60532;56.114;40.350;2023-05-10T08:45:05;4.20;4.20;2.00
72509;PMS5003;60532;56.114;40.350;2023-05-10T08:47:07;4.00;4.00;2.20
72509;PMS5003;60532;56.114;40.350;2023-05-10T08:49:09;3.00;3.00;1.60
72509;PMS5003;60532;56.114;40.350;2023-05-10T08:51:22;4.00;4.00;2.00
72509;PMS5003;60532;56.114;40.350;2023-05-10T08:53:24;6.20;6.20;3.00
72509;PMS5003;60532;56.114;40.350;2023-05-10T08:55:27;5.00;5.00;2.40
72509;PMS5003;60532;56.114;40.350;2023-05-10T08:57:30;3.40;3.40;2.00
72509;PMS5003;60532;56.114;40.350;2023-05-10T08:59:31;4.25;4.00;2.00
72509;PMS5003;60532;56.114;40.350;2023-05-10T09:01:33;5.00;5.00;2.00
72509;PMS5003;60532;56.114;40.350;2023-05-10T09:03:35;6.00;4.00;2.60
72509;PMS5003;60532;56.114;40.350;2023-05-10T09:05:38;3.00;3.00;1.40
72509;PMS5003;60532;56.114;40.350;2023-05-10T09:07:39;3.75;3.75;1.25
72509;PMS5003;60532;56.114;40.350;2023-05-10T09:09:39;2.00;2.00;1.25
72509;PMS5003;60532;56.114;40.350;2023-05-10T09:11:40;3.00;3.00;2.00
72509;PMS5003;60532;56.114;40.350;2023-05-10T09:13:40;5.00;5.00;2.25
72509;PMS5003;60532;56.114;40.350;2023-05-10T09:15:42;2.80;2.00;1.00
72509;PMS5003;60532;56.114;40.350;2023-05-10T09:17:43;3.20;3.20;2.00
72509;PMS5003;60532;56.114;40.350;2023-05-10T09:19:44;6.00;6.00;4.00
72509;PMS5003;60532;56.114;40.350;2023-05-10T09:21:45;6.00;6.00;3.40
72509;PMS5003;60532;56.114;40.350;2023-05-10T09:23:46;5.50;5.50;2.25
72509;PMS5003;60532;56.114;40.350;2023-05-10T09:25:47;4.00;4.00;2.00
72509;PMS5003;60532;56.114;40.350;2023-05-10T09:27:47;5.25;5.25;3.00
72509;PMS5003;60532;56.114;40.350;2023-05-10T09:29:48;3.25;3.25;2.25
72509;PMS5003;60532;56.114;40.350;2023-05-10T09:31:56;4.00;4.00;2.20
72509;PMS5003;60532;56.114;40.350;2023-05-10T09:33:56;6.50;4.50;2.00
72509;PMS5003;60532;56.114;40.350;2023-05-10T09:36:05;4.25;4.25;2.00
72509;PMS5003;60532;56.114;40.350;2023-05-10T09:38:07;5.60;4.00;2.00
72509;PMS5003;60532;56.114;40.350;2023-05-10T09:40:08;3.00;3.00;2.00
72509;PMS5003;60532;56.114;40.350;2023-05-10T09:42:11;5.60;5.00;3.00
72509;PMS5003;60532;56.114;40.350;2023-05-10T09:44:11;6.00;4.00;3.00
72509;PMS5003;60532;56.114;40.350;2023-05-10T09:46:13;5.20;5.00;3.00
72509;PMS5003;60532;56.114;40.350;2023-05-10T09:48:18;3.75;3.00;2.00
72509;PMS5003;60532;56.114;40.350;2023-05-10T09:50:23;3.80;3.80;2.00
72509;PMS5003;60532;56.114;40.350;2023-05-10T09:52:24;4.00;4.00;3.00
72509;PMS5003;60532;56.114;40.350;2023-05-10T09:54:25;4.00;4.00;2.25
72509;PMS5003;60532;56.114;40.350;2023-05-10T09:56:34;3.00;3.00;2.00
72509;PMS5003;60532;56.114;40.350;2023-05-10T09:58:38;3.80;3.80;2.00
72509;PMS5003;60532;56.114;40.350;2023-05-10T10:00:40;3.00;3.00;1.20
72509;PMS5003;60532;56.114;40.350;2023-05-10T10:02:40;4.00;3.00;2.40
72509;PMS5003;60532;56.114;40.350;2023-05-10T10:04:41;2.25;2.25;1.00
72509;PMS5003;60532;56.114;40.350;2023-05-10T10:06:42;4.50;3.00;2.00
72509;PMS5003;60532;56.114;40.350;2023-05-10T10:08:46;2.00;2.00;1.00
72509;PMS5003;60532;56.114;40.350;2023-05-10T10:10:46;5.00;3.25;2.00
72509;PMS5003;60532;56.114;40.350;2023-05-10T10:12:47;4.00;4.00;2.00
72509;PMS5003;60532;56.114;40.350;2023-05-10T10:14:48;4.00;4.00;2.25
72509;PMS5003;60532;56.114;40.350;2023-05-10T10:16:51;5.80;4.00;2.80
72509;PMS5003;60532;56.114;40.350;2023-05-10T10:18:52;5.80;4.20;3.00
72509;PMS5003;60532;56.114;40.350;2023-05-10T10:20:53;5.00;4.00;3.00
72509;PMS5003;60532;56.114;40.350;2023-05-10T10:22:54;3.80;3.80;2.20
72509;PMS5003;60532;56.114;40.350;2023-05-10T10:24:54;7.00;5.00;3.00
72509;PMS5003;60532;56.114;40.350;2023-05-10T10:26:55;4.50;4.50;2.75
72509;PMS5003;60532;56.114;40.350;2023-05-10T10:29:08;5.80;4.00;3.00
72509;PMS5003;60532;56.114;40.350;2023-05-10T10:33:40;4.00;4.00;2.00
72509;PMS5003;60532;56.114;40.350;2023-05-10T10:35:49;5.00;4.40;3.00
72509;PMS5003;60532;56.114;40.350;2023-05-10T10:37:50;6.00;4.00;2.00
72509;PMS5003;60532;56.114;40.350;2023-05-10T10:39:51;3.25;3.00;1.00
72509;PMS5003;60532;56.114;40.350;2023-05-10T10:41:55;4.20;4.00;2.00
72509;PMS5003;60532;56.114;40.350;2023-05-10T10:46:16;5.20;3.80;2.00
72509;PMS5003;60532;56.114;40.350;2023-05-10T10:48:20;4.20;4.20;2.20
72509;PMS5003;60532;56.114;40.350;2023-05-10T10:50:21;3.80;3.00;1.60
72509;PMS5003;60532;56.114;40.350;2023-05-10T10:52:26;4.00;4.00;2.00
72509;PMS5003;60532;56.114;40.350;2023-05-10T10:54:31;5.40;5.40;2.80
72509;PMS5003;60532;56.114;40.350;2023-05-10T10:56:32;5.00;3.40;2.00
72509;PMS5003;60532;56.114;40.350;2023-05-10T10:58:33;4.50;4.50;2.00
72509;PMS5003;60532;56.114;40.350;2023-05-10T11:00:37;4.00;4.00;2.25
72509;PMS5003;60532;56.114;40.350;2023-05-10T11:04:42;4.00;4.00;3.00
72509;PMS5003;60532;56.114;40.350;2023-05-10T11:06:43;3.40;3.00;1.40
72509;PMS5003;60532;56.114;40.350;2023-05-10T11:08:44;4.00;4.00;2.00
72509;PMS5003;60532;56.114;40.350;2023-05-10T11:13:06;5.00;4.00;2.00
72509;PMS5003;60532;56.114;40.350;2023-05-10T11:15:08;3.00;3.00;2.00
72509;PMS5003;60532;56.114;40.350;2023-05-10T11:17:25;5.40;4.20;2.00
72509;PMS5003;60532;56.114;40.350;2023-05-10T11:19:27;3.00;3.00;2.40
72509;PMS5003;60532;56.114;40.350;2023-05-10T11:21:28;4.00;4.00;1.20
72509;PMS5003;60532;56.114;40.350;2023-05-10T11:23:29;3.00;3.00;1.20
72509;PMS5003;60532;56.114;40.350;2023-05-10T11:25:30;4.00;4.00;2.00
72509;PMS5003;60532;56.114;40.350;2023-05-10T11:27:31;4.75;2.00;1.00
72509;PMS5003;60532;56.114;40.350;2023-05-10T11:29:33;2.60;2.60;2.00
72509;PMS5003;60532;56.114;40.350;2023-05-10T11:31:34;3.00;3.00;1.50
72509;PMS5003;60532;56.114;40.350;2023-05-10T11:33:49;3.60;3.20;1.20
72509;PMS5003;60532;56.114;40.350;2023-05-10T11:35:50;3.20;2.40;2.00
72509;PMS5003;60532;56.114;40.350;2023-05-10T11:37:50;3.00;3.00;2.00
72509;PMS5003;60532;56.114;40.350;2023-05-10T11:39:51;4.00;3.00;2.00
72509;PMS5003;60532;56.114;40.350;2023-05-10T11:41:51;6.00;4.00;2.00
72509;PMS5003;60532;56.114;40.350;2023-05-10T11:43:52;2.00;2.00;0.00
72509;PMS5003;60532;56.114;40.350;2023-05-10T11:45:53;2.20;2.20;1.00
72509;PMS5003;60532;56.114;40.350;2023-05-10T11:47:57;4.00;3.80;2.00
72509;PMS5003;60532;56.114;40.350;2023-05-10T11:49:58;5.00;4.00;2.00
72509;PMS5003;60532;56.114;40.350;2023-05-10T11:52:07;5.25;5.00;2.00
72509;PMS5003;60532;56.114;40.350;2023-05-10T11:54:09;3.00;3.00;2.00
72509;PMS5003;60532;56.114;40.350;2023-05-10T11:56:10;4.00;3.00;2.00
72509;PMS5003;60532;56.114;40.350;2023-05-10T11:58:10;3.25;1.25;1.00
72509;PMS5003;60532;56.114;40.350;2023-05-10T12:00:11;2.00;2.00;2.00
72509;PMS5003;60532;56.114;40.350;2023-05-10T12:02:15;3.20;3.20;2.00
72509;PMS5003;60532;56.114;40.350;2023-05-10T12:04:15;3.60;3.60;2.00